createdAt,value
2023-02-18T00:02:06.883Z,7.47
2023-02-18T00:04:55.125Z,8.70
2023-02-18T00:07:41.168Z,5.75
2023-02-18T00:10:26.451Z,8.00
2023-02-18T00:13:12.312Z,7.68
2023-02-18T00:16:10.312Z,7.53
2023-02-18T00:18:57.428Z,6.88
2023-02-18T00:21:43.861Z,6.95
2023-02-18T00:24:29.406Z,7.45
2023-02-18T00:27:15.755Z,4.30
2023-02-18T00:30:01.623Z,7.28
2023-02-18T00:32:47.032Z,4.53
2023-02-18T00:35:32.866Z,8.38
2023-02-18T00:38:18.773Z,5.90
2023-02-18T00:41:05.265Z,4.95
2023-02-18T00:43:57.007Z,5.38
2023-02-18T00:46:43.732Z,7.78
2023-02-18T00:49:29.407Z,5.85
2023-02-18T00:52:15.166Z,7.43
2023-02-18T00:55:00.574Z,9.82
2023-02-18T00:57:46.911Z,9.07
2023-02-18T01:00:32.655Z,7.30
2023-02-18T01:03:18.225Z,8.75
2023-02-18T01:06:04.934Z,7.85
2023-02-18T01:08:50.840Z,9.52
2023-02-18T01:11:36.444Z,6.82
2023-02-18T01:14:21.966Z,6.28
2023-02-18T01:17:07.366Z,5.75
2023-02-18T01:19:52.964Z,3.22
2023-02-18T01:22:38.760Z,6.10
2023-02-18T01:25:24.279Z,4.40
2023-02-18T01:28:11.948Z,4.05
2023-02-18T01:30:57.358Z,3.17
2023-02-18T01:33:43.140Z,3.03
2023-02-18T01:36:28.379Z,2.65
2023-02-18T01:39:13.924Z,4.70
2023-02-18T01:41:59.618Z,2.33
2023-02-18T01:44:46.529Z,2.80
2023-02-18T01:47:32.125Z,3.10
2023-02-18T01:50:17.606Z,2.75
2023-02-18T01:53:03.922Z,3.25
2023-02-18T01:55:49.717Z,3.22
2023-02-18T01:58:43.400Z,1.25
2023-02-18T02:04:14.291Z,3.38
2023-02-18T02:06:59.785Z,3.38
2023-02-18T02:09:46.317Z,1.95
2023-02-18T02:12:31.784Z,1.48
2023-02-18T02:15:46.383Z,3.47
2023-02-18T02:18:54.891Z,1.70
2023-02-18T02:21:49.358Z,2.70
2023-02-18T02:25:08.100Z,1.67
2023-02-18T02:28:05.717Z,1.38
2023-02-18T02:31:28.959Z,3.60
2023-02-18T02:34:35.600Z,2.20
2023-02-18T02:37:32.876Z,2.58
2023-02-18T02:40:31.189Z,2.80
2023-02-18T02:43:50.721Z,1.17
2023-02-18T02:46:41.222Z,1.23
2023-02-18T02:49:49.611Z,4.07
2023-02-18T02:52:44.423Z,1.35
2023-02-18T02:55:29.901Z,4.55
2023-02-18T02:58:17.005Z,4.53
2023-02-18T03:01:09.418Z,9.57
2023-02-18T03:04:10.126Z,2.40
2023-02-18T03:07:12.404Z,5.05
2023-02-18T03:10:28.178Z,3.88
2023-02-18T03:13:27.018Z,5.57
2023-02-18T03:16:37.247Z,1.25
2023-02-18T03:19:36.968Z,5.07
2023-02-18T03:22:29.706Z,3.33
2023-02-18T03:25:17.114Z,4.88
2023-02-18T03:28:10.145Z,3.13
2023-02-18T03:31:10.866Z,3.00
2023-02-18T03:34:05.409Z,7.38
2023-02-18T03:36:51.262Z,6.45
2023-02-18T03:39:40.105Z,3.90
2023-02-18T03:42:29.455Z,8.40
2023-02-18T03:45:15.289Z,4.07
2023-02-18T03:48:01.134Z,3.25
2023-02-18T03:50:46.271Z,7.25
2023-02-18T03:53:31.909Z,7.22
2023-02-18T03:56:18.097Z,4.47
2023-02-18T03:59:04.452Z,4.82
2023-02-18T04:01:49.715Z,4.10
2023-02-18T04:04:35.160Z,5.97
2023-02-18T04:07:20.827Z,7.22
2023-02-18T04:10:07.228Z,2.45
2023-02-18T04:12:53.224Z,6.60
2023-02-18T04:15:38.781Z,5.00
2023-02-18T04:18:24.264Z,4.80
2023-02-18T04:21:09.661Z,5.47
2023-02-18T04:23:55.190Z,3.97
2023-02-18T04:26:40.802Z,3.25
2023-02-18T04:29:26.173Z,4.80
2023-02-18T04:32:11.684Z,7.30
2023-02-18T04:34:57.253Z,7.40
2023-02-18T04:37:42.704Z,4.05
2023-02-18T04:40:30.640Z,6.55
2023-02-18T04:43:16.198Z,4.50
2023-02-18T04:46:01.623Z,4.75
2023-02-18T04:48:47.295Z,4.97
2023-02-18T04:51:32.862Z,5.10
2023-02-18T04:54:18.296Z,5.07
2023-02-18T04:57:04.011Z,4.10
2023-02-18T04:59:49.552Z,3.67
2023-02-18T05:02:35.207Z,2.33
2023-02-18T05:05:21.327Z,6.00
2023-02-18T05:08:07.930Z,3.88
2023-02-18T05:10:53.295Z,7.10
2023-02-18T05:13:38.772Z,6.93
2023-02-18T05:16:24.497Z,6.40
2023-02-18T05:19:14.501Z,3.65
2023-02-18T05:22:00.097Z,5.22
2023-02-18T05:24:45.682Z,2.67
2023-02-18T05:27:31.452Z,4.47
2023-02-18T05:30:16.884Z,6.85
2023-02-18T05:33:02.474Z,5.70
2023-02-18T05:35:49.155Z,5.97
2023-02-18T05:38:34.743Z,7.05
2023-02-18T05:41:20.817Z,3.80
2023-02-18T05:44:24.626Z,4.30
2023-02-18T05:47:12.191Z,3.75
2023-02-18T05:49:58.192Z,5.63
2023-02-18T05:52:43.277Z,1.58
2023-02-18T05:55:29.018Z,2.17
2023-02-18T05:58:15.166Z,3.55
2023-02-18T06:01:00.644Z,2.83
2023-02-18T06:03:46.034Z,2.55
2023-02-18T06:06:31.830Z,7.97
2023-02-18T06:09:17.527Z,7.50
2023-02-18T06:12:03.476Z,2.92
2023-02-18T06:14:49.017Z,5.57
2023-02-18T06:17:39.118Z,7.15
2023-02-18T06:20:25.209Z,11.38
2023-02-18T06:23:11.734Z,4.20
2023-02-18T06:25:57.740Z,7.85
2023-02-18T06:28:43.389Z,4.95
2023-02-18T06:31:29.280Z,1.67
2023-02-18T06:34:15.299Z,1.42
2023-02-18T06:37:01.572Z,5.78
2023-02-18T06:39:47.108Z,7.15
2023-02-18T06:42:32.853Z,3.83
2023-02-18T06:45:18.412Z,4.72
2023-02-18T06:48:04.414Z,4.90
2023-02-18T06:50:51.218Z,3.88
2023-02-18T06:53:36.741Z,4.00
2023-02-18T06:56:22.483Z,4.00
2023-02-18T06:59:08.481Z,3.92
2023-02-18T07:01:54.009Z,2.03
2023-02-18T07:04:39.480Z,4.03
2023-02-18T07:07:24.844Z,2.50
2023-02-18T07:10:10.980Z,9.20
2023-02-18T07:12:56.437Z,6.72
2023-02-18T07:15:42.056Z,3.75
2023-02-18T07:18:27.663Z,1.85
2023-02-18T07:21:13.401Z,1.40
2023-02-18T07:23:59.221Z,3.88
2023-02-18T07:26:44.819Z,5.10
2023-02-18T07:29:30.134Z,6.13
2023-02-18T07:32:17.706Z,3.15
2023-02-18T07:35:04.175Z,2.55
2023-02-18T07:37:51.053Z,4.22
2023-02-18T07:40:36.613Z,4.55
2023-02-18T07:43:22.441Z,3.63
2023-02-18T07:46:08.528Z,4.53
2023-02-18T07:48:54.752Z,5.70
2023-02-18T07:51:40.388Z,1.83
2023-02-18T07:54:26.040Z,4.13
2023-02-18T07:57:11.604Z,6.05
2023-02-18T07:59:57.076Z,6.78
2023-02-18T08:02:42.481Z,3.45
2023-02-18T08:05:28.026Z,3.40
2023-02-18T08:08:20.557Z,1.23
2023-02-18T08:11:18.417Z,5.43
2023-02-18T08:14:04.908Z,3.97
2023-02-18T08:16:50.513Z,4.22
2023-02-18T08:19:35.763Z,5.47
2023-02-18T08:22:21.313Z,2.17
2023-02-18T08:25:07.198Z,10.82
2023-02-18T08:27:52.688Z,2.90
2023-02-18T08:30:38.022Z,5.07
2023-02-18T08:33:24.320Z,2.15
2023-02-18T08:36:10.806Z,2.47
2023-02-18T08:38:57.552Z,2.20
2023-02-18T08:41:43.159Z,3.28
2023-02-18T08:44:29.093Z,2.15
2023-02-18T08:48:16.646Z,5.07
2023-02-18T08:50:26.180Z,4.68
2023-02-18T08:53:11.958Z,2.97
2023-02-18T08:55:57.684Z,2.20
2023-02-18T08:58:43.936Z,4.95
2023-02-18T09:01:29.610Z,4.82
2023-02-18T09:04:15.314Z,7.75
2023-02-18T09:07:01.125Z,4.13
2023-02-18T09:09:46.474Z,5.68
2023-02-18T09:12:32.005Z,4.85
2023-02-18T09:15:17.770Z,3.72
2023-02-18T09:18:03.600Z,1.27
2023-02-18T09:20:48.829Z,5.53
2023-02-18T09:23:34.491Z,4.70
2023-02-18T09:26:22.982Z,4.65
2023-02-18T09:29:10.099Z,6.50
2023-02-18T09:31:55.716Z,4.38
2023-02-18T09:34:41.327Z,2.88
2023-02-18T09:37:26.916Z,3.92
2023-02-18T09:40:27.085Z,5.10
2023-02-18T09:43:42.775Z,2.80
2023-02-18T09:46:36.242Z,4.43
2023-02-18T09:49:33.565Z,2.45
2023-02-18T09:52:30.886Z,3.67
2023-02-18T09:55:30.305Z,2.50
2023-02-18T09:58:19.481Z,3.35
2023-02-18T10:01:26.233Z,2.50
2023-02-18T10:04:40.439Z,4.05
2023-02-18T10:10:42.947Z,8.55
2023-02-18T10:13:34.208Z,3.90
2023-02-18T10:16:22.625Z,4.80
2023-02-18T10:19:37.681Z,2.35
2023-02-18T10:22:25.350Z,5.63
2023-02-18T10:25:19.072Z,4.60
2023-02-18T10:28:05.135Z,9.15
2023-02-18T10:31:00.665Z,3.30
2023-02-18T10:34:06.876Z,2.22
2023-02-18T10:36:58.358Z,2.33
2023-02-18T10:39:51.402Z,2.95
2023-02-18T10:42:46.603Z,2.35
2023-02-18T10:45:47.030Z,4.07
2023-02-18T10:48:43.619Z,9.73
2023-02-18T10:51:34.056Z,3.25
2023-02-18T10:54:24.561Z,3.13
2023-02-18T10:57:20.928Z,3.20
2023-02-18T11:00:26.749Z,3.28
2023-02-18T11:03:25.558Z,2.13
2023-02-18T11:06:27.416Z,2.22
2023-02-18T11:09:34.501Z,4.38
2023-02-18T11:12:19.875Z,5.00
2023-02-18T11:15:19.168Z,2.15
2023-02-18T11:18:46.560Z,2.05
2023-02-18T11:21:37.087Z,1.55
2023-02-18T11:24:22.541Z,4.20
2023-02-18T11:27:19.569Z,2.88
2023-02-18T11:30:16.167Z,2.00
2023-02-18T11:33:07.483Z,2.55
2023-02-18T11:35:54.742Z,3.80
2023-02-18T11:38:54.036Z,4.57
2023-02-18T11:41:42.925Z,2.40
2023-02-18T11:44:33.146Z,3.35
2023-02-18T11:47:23.718Z,6.90
2023-02-18T11:50:09.510Z,3.67
2023-02-18T11:52:57.540Z,5.80
2023-02-18T11:55:58.949Z,2.92
2023-02-18T11:58:48.134Z,2.80
2023-02-18T12:01:38.648Z,5.07
2023-02-18T12:04:52.492Z,5.93
2023-02-18T12:11:03.856Z,2.47
2023-02-18T12:13:54.042Z,2.42
2023-02-18T12:16:46.580Z,2.67
2023-02-18T12:20:06.682Z,2.25
2023-02-18T12:23:05.870Z,1.88
2023-02-18T12:26:29.885Z,4.82
2023-02-18T12:29:25.485Z,4.80
2023-02-18T12:32:11.386Z,4.53
2023-02-18T12:34:59.721Z,3.00
2023-02-18T12:37:57.591Z,3.10
2023-02-18T12:41:17.342Z,1.50
2023-02-18T12:44:33.949Z,2.28
2023-02-18T12:47:31.605Z,1.98
2023-02-18T12:50:35.143Z,3.63
2023-02-18T12:53:23.881Z,1.05
2023-02-18T12:56:12.747Z,1.83
2023-02-18T12:59:23.096Z,1.35
2023-02-18T13:02:30.316Z,1.08
2023-02-18T13:05:32.128Z,1.30
2023-02-18T13:08:20.859Z,1.17
2023-02-18T13:11:19.810Z,1.60
2023-02-18T13:14:14.971Z,4.30
2023-02-18T13:17:02.832Z,2.72
2023-02-18T13:19:52.388Z,2.15
2023-02-18T13:22:38.400Z,3.78
2023-02-18T13:25:24.583Z,2.45
2023-02-18T13:28:26.540Z,1.30
2023-02-18T13:31:19.164Z,3.40
2023-02-18T13:34:23.622Z,3.85
2023-02-18T13:37:37.470Z,1.45
2023-02-18T13:40:30.169Z,2.80
2023-02-18T13:43:27.960Z,2.70
2023-02-18T13:46:19.387Z,5.05
2023-02-18T13:49:13.062Z,5.82
2023-02-18T13:52:01.654Z,1.23
2023-02-18T13:54:48.684Z,1.08
2023-02-18T13:57:38.991Z,3.80
2023-02-18T14:00:37.792Z,3.67
2023-02-18T14:03:38.366Z,3.38
2023-02-18T14:06:26.119Z,3.50
2023-02-18T14:09:12.238Z,3.00
2023-02-18T14:12:24.202Z,4.57
2023-02-18T14:15:18.552Z,3.20
2023-02-18T14:18:27.162Z,2.58
2023-02-18T14:21:13.067Z,4.38
2023-02-18T14:24:01.800Z,2.15
2023-02-18T14:26:49.361Z,2.63
2023-02-18T14:29:34.724Z,3.03
2023-02-18T14:32:21.634Z,6.88
2023-02-18T14:35:35.267Z,3.22
2023-02-18T14:38:59.984Z,2.55
2023-02-18T14:42:04.056Z,3.47
2023-02-18T14:44:52.761Z,2.70
2023-02-18T14:48:02.675Z,2.92
2023-02-18T14:50:50.494Z,4.03
2023-02-18T14:53:43.527Z,1.92
2023-02-18T14:56:29.013Z,1.98
2023-02-18T14:59:14.868Z,2.35
2023-02-18T15:02:00.784Z,3.03
2023-02-18T15:04:47.561Z,3.55
2023-02-18T15:07:33.078Z,3.47
2023-02-18T15:10:18.775Z,2.42
2023-02-18T15:13:08.249Z,2.00
2023-02-18T15:16:01.740Z,1.13
2023-02-18T15:19:13.551Z,1.65
2023-02-18T15:21:59.034Z,2.40
2023-02-18T15:24:45.003Z,1.58
2023-02-18T15:27:34.370Z,2.53
2023-02-18T15:30:31.578Z,1.90
2023-02-18T15:33:20.499Z,2.10
2023-02-18T15:36:11.261Z,2.85
2023-02-18T15:38:57.778Z,3.17
2023-02-18T15:41:43.324Z,3.58
2023-02-18T15:44:32.326Z,1.88
2023-02-18T15:47:18.991Z,1.45
2023-02-18T15:50:05.213Z,0.65
2023-02-18T15:52:53.701Z,1.27
2023-02-18T15:55:45.845Z,2.78
2023-02-18T15:58:32.900Z,3.88
2023-02-18T16:01:28.237Z,1.15
2023-02-18T16:04:15.498Z,1.55
2023-02-18T16:07:05.695Z,0.93
2023-02-18T16:09:57.977Z,0.95
2023-02-18T16:12:50.125Z,3.37
2023-02-18T16:15:40.727Z,4.82
2023-02-18T16:18:32.356Z,2.38
2023-02-18T16:21:17.915Z,3.10
2023-02-18T16:24:21.630Z,3.38
2023-02-18T16:27:16.657Z,3.85
2023-02-18T16:30:22.828Z,2.42
2023-02-18T16:33:08.751Z,1.77
2023-02-18T16:35:57.671Z,2.53
2023-02-18T16:38:44.833Z,1.58
2023-02-18T16:41:30.247Z,3.20
2023-02-18T16:44:16.232Z,1.63
2023-02-18T16:47:01.782Z,2.20
2023-02-18T16:49:50.860Z,3.45
2023-02-18T16:52:37.452Z,1.23
2023-02-18T16:55:25.481Z,1.50
2023-02-18T16:58:11.370Z,2.63
2023-02-18T17:00:57.493Z,2.38
2023-02-18T17:03:43.074Z,0.65
2023-02-18T17:06:29.615Z,3.65
2023-02-18T17:09:27.341Z,2.40
2023-02-18T17:12:13.440Z,2.10
2023-02-18T17:14:58.824Z,3.85
2023-02-18T17:17:45.612Z,3.40
2023-02-18T17:20:33.418Z,1.75
2023-02-18T17:23:23.864Z,3.67
2023-02-18T17:26:24.924Z,1.02
2023-02-18T17:29:10.716Z,1.70
2023-02-18T17:31:57.875Z,2.03
2023-02-18T17:34:43.345Z,2.38
2023-02-18T17:37:29.156Z,1.35
2023-02-18T17:40:19.376Z,2.22
2023-02-18T17:43:04.644Z,2.40
2023-02-18T17:45:53.227Z,4.15
2023-02-18T17:48:39.597Z,5.38
2023-02-18T17:51:29.514Z,5.25
2023-02-18T17:54:17.788Z,2.55
2023-02-18T17:57:03.821Z,2.03
2023-02-18T17:59:49.264Z,9.20
2023-02-18T18:02:34.939Z,6.00
2023-02-18T18:05:36.068Z,3.15
2023-02-18T18:08:22.048Z,3.60
2023-02-18T18:11:16.078Z,6.07
2023-02-18T18:14:01.458Z,4.10
2023-02-18T18:16:47.523Z,6.65
2023-02-18T18:19:34.263Z,3.58
2023-02-18T18:22:19.945Z,8.30
2023-02-18T18:25:19.967Z,7.32
2023-02-18T18:28:06.908Z,8.02
2023-02-18T18:30:54.514Z,7.38
2023-02-18T18:33:40.266Z,7.28
2023-02-18T18:36:25.798Z,8.48
2023-02-18T18:39:11.681Z,5.55
2023-02-18T18:41:57.778Z,6.10
2023-02-18T18:44:43.531Z,6.07
2023-02-18T18:47:29.484Z,5.85
2023-02-18T18:50:15.639Z,9.55
2023-02-18T18:53:01.490Z,6.20
2023-02-18T18:55:47.815Z,9.73
2023-02-18T18:58:33.711Z,10.52
2023-02-18T19:01:27.562Z,7.00
2023-02-18T19:04:13.381Z,6.32
2023-02-18T19:06:58.904Z,9.93
2023-02-18T19:09:44.693Z,5.15
2023-02-18T19:12:30.091Z,8.65
2023-02-18T19:15:19.135Z,9.13
2023-02-18T19:18:05.132Z,8.57
2023-02-18T19:20:50.462Z,12.65
2023-02-18T19:23:36.508Z,9.32
2023-02-18T19:26:22.258Z,8.18
2023-02-18T19:29:08.298Z,8.48
2023-02-18T19:31:54.492Z,11.02
2023-02-18T19:34:39.988Z,9.18
2023-02-18T19:37:25.370Z,13.48
2023-02-18T19:40:18.181Z,12.07
2023-02-18T19:43:04.061Z,7.00
2023-02-18T19:45:49.662Z,9.20
2023-02-18T19:48:35.282Z,12.73
2023-02-18T19:51:25.048Z,7.13
2023-02-18T19:54:10.566Z,9.32
2023-02-18T19:56:56.076Z,12.18
2023-02-18T19:59:41.754Z,9.45
2023-02-18T20:02:27.717Z,8.13
2023-02-18T20:05:14.363Z,17.70
2023-02-18T20:08:00.278Z,13.10
2023-02-18T20:10:45.697Z,12.32
2023-02-18T20:13:31.280Z,8.50
2023-02-18T20:16:16.903Z,10.80
2023-02-18T20:19:02.681Z,14.32
2023-02-18T20:21:48.212Z,12.93
2023-02-18T20:24:34.788Z,13.90
2023-02-18T20:27:20.800Z,11.07
2023-02-18T20:30:08.094Z,10.02
2023-02-18T20:32:55.270Z,14.93
2023-02-18T20:35:41.104Z,15.52
2023-02-18T20:38:26.712Z,10.63
2023-02-18T20:41:14.597Z,12.32
2023-02-18T20:44:00.946Z,15.10
2023-02-18T20:46:49.342Z,11.60
2023-02-18T20:49:35.659Z,11.45
2023-02-18T20:52:21.664Z,11.90
2023-02-18T20:55:07.660Z,12.43
2023-02-18T20:57:54.463Z,12.48
2023-02-18T21:00:41.252Z,14.50
2023-02-18T21:03:27.967Z,15.90
2023-02-18T21:06:17.073Z,12.60
2023-02-18T21:09:03.124Z,16.63
2023-02-18T21:11:49.718Z,15.43
2023-02-18T21:14:36.202Z,17.10
2023-02-18T21:17:22.476Z,17.13
2023-02-18T21:20:09.133Z,16.13
2023-02-18T21:22:56.322Z,18.02
2023-02-18T21:25:44.742Z,15.07
2023-02-18T21:28:31.600Z,9.93
2023-02-18T21:31:23.489Z,10.20
2023-02-18T21:34:13.095Z,17.02
2023-02-18T21:36:58.617Z,13.18
2023-02-18T21:39:44.005Z,12.32
2023-02-18T21:42:31.061Z,14.63
2023-02-18T21:45:17.219Z,15.10
2023-02-18T21:48:22.477Z,15.75
2023-02-18T21:51:10.940Z,24.88
2023-02-18T21:53:56.923Z,16.67
2023-02-18T21:56:42.904Z,15.00
2023-02-18T21:59:30.396Z,17.58
2023-02-18T22:02:22.442Z,16.25
2023-02-18T22:05:09.996Z,16.92
2023-02-18T22:07:55.777Z,23.02
2023-02-18T22:10:41.257Z,17.40
2023-02-18T22:13:28.408Z,19.25
2023-02-18T22:16:15.234Z,16.40
2023-02-18T22:19:01.101Z,16.35
2023-02-18T22:21:47.224Z,16.70
2023-02-18T22:24:33.134Z,18.25
2023-02-18T22:27:19.594Z,31.15
2023-02-18T22:30:05.849Z,17.10
2023-02-18T22:32:51.065Z,19.60
2023-02-18T22:35:36.731Z,18.35
2023-02-18T22:38:22.212Z,28.60
2023-02-18T22:41:10.959Z,18.42
2023-02-18T22:44:06.361Z,21.33
2023-02-18T22:46:55.094Z,23.88
2023-02-18T22:49:40.670Z,28.92
2023-02-18T22:52:25.976Z,24.02
2023-02-18T22:55:11.565Z,16.77
2023-02-18T22:57:56.744Z,21.85
2023-02-18T23:00:42.299Z,21.60
2023-02-18T23:03:29.039Z,20.27
2023-02-18T23:06:14.507Z,19.45
2023-02-18T23:09:00.627Z,16.02
2023-02-18T23:11:49.222Z,21.38
2023-02-18T23:14:34.640Z,23.63
2023-02-18T23:17:20.308Z,16.20
2023-02-18T23:20:06.199Z,21.92
2023-02-18T23:22:51.677Z,14.13
2023-02-18T23:25:37.345Z,21.00
2023-02-18T23:28:22.743Z,24.83
2023-02-18T23:31:08.767Z,14.98
2023-02-18T23:33:57.262Z,27.40
2023-02-18T23:36:43.812Z,27.55
2023-02-18T23:39:29.731Z,20.83
2023-02-18T23:42:17.022Z,23.35
2023-02-18T23:45:02.559Z,23.00
2023-02-18T23:47:47.858Z,15.38
2023-02-18T23:50:32.918Z,23.13
2023-02-18T23:53:18.296Z,15.75
2023-02-18T23:56:14.188Z,25.45
2023-02-18T23:59:01.702Z,21.85
